createdAt,value
2022-08-09T00:00:16.413Z,5
2022-08-09T00:02:19.930Z,5.7
2022-08-09T00:04:34.093Z,5.3
2022-08-09T00:10:36.990Z,4.8
2022-08-09T00:12:40.498Z,5.5
2022-08-09T00:14:45.412Z,5.6
2022-08-09T00:16:47.491Z,5.5
2022-08-09T00:18:51.010Z,5.1
2022-08-09T00:20:57.875Z,6
2022-08-09T00:23:08.430Z,5.9
2022-08-09T00:25:08.487Z,5.6
2022-08-09T00:27:08.109Z,5.9
2022-08-09T00:29:12.339Z,6.2
2022-08-09T00:31:56.845Z,5.9
2022-08-09T00:33:18.609Z,5
2022-08-09T00:35:25.203Z,6.9
2022-08-09T00:37:30.318Z,5.6
2022-08-09T00:40:12.077Z,6
2022-08-09T00:44:09.987Z,5.4
2022-08-09T00:44:13.489Z,5.7
2022-08-09T00:45:50.709Z,5.4
2022-08-09T00:47:46.215Z,4.9
2022-08-09T00:49:56.573Z,6
2022-08-09T00:51:56.422Z,6.1
2022-08-09T00:53:59.806Z,5.6
2022-08-09T00:58:33.157Z,6.1
2022-08-09T01:00:36.660Z,5.4
2022-08-09T01:06:54.312Z,5.5
2022-08-09T01:10:57.225Z,6
2022-08-09T01:13:00.756Z,5.7
2022-08-09T01:21:17.870Z,7.1
2022-08-09T01:24:02.622Z,6.4
2022-08-09T01:25:24.899Z,7.2
2022-08-09T01:27:29.232Z,7
2022-08-09T01:29:41.395Z,7.3
2022-08-09T01:32:29.756Z,6.9
2022-08-09T01:33:42.021Z,6.5
2022-08-09T01:35:45.514Z,7.7
2022-08-09T01:38:08.291Z,7.7
2022-08-09T01:39:52.564Z,7.1
2022-08-09T01:42:00.641Z,7.9
2022-08-09T01:43:59.605Z,8.1
2022-08-09T01:46:06.191Z,7.5
2022-08-09T01:48:09.718Z,7.8
2022-08-09T01:50:13.217Z,7.4
2022-08-09T01:53:21.592Z,8.3
2022-08-09T01:55:23.558Z,7.1
2022-08-09T01:57:27.047Z,8.7
2022-08-09T01:59:33.686Z,8.5
2022-08-09T02:02:00.205Z,8.2
2022-08-09T02:03:40.730Z,7.5
2022-08-09T02:06:03.295Z,7.8
2022-08-09T02:08:40.365Z,7.8
2022-08-09T02:09:59.708Z,7.5
2022-08-09T02:11:54.816Z,7.7
2022-08-09T02:14:07.141Z,8.2
2022-08-09T02:16:04.982Z,8.7
2022-08-09T02:18:10.724Z,9.3
2022-08-09T02:20:11.986Z,7.7
2022-08-09T02:22:15.498Z,7.7
2022-08-09T02:24:26.338Z,8.5
2022-08-09T02:28:29.219Z,8.1
2022-08-09T02:32:36.292Z,9.6
2022-08-09T02:34:41.333Z,8.3
2022-08-09T02:36:43.357Z,7.8
2022-08-09T02:38:47.814Z,8.7
2022-08-09T02:40:50.459Z,8.8
2022-08-09T02:42:59.933Z,8.6
2022-08-09T02:45:00.601Z,8.4
2022-08-09T02:47:04.427Z,8.6
2022-08-09T02:48:12.242Z,9.7
2022-08-09T02:50:10.971Z,8.9
2022-08-09T02:52:14.499Z,7.7
2022-08-09T02:54:18.057Z,9.2
2022-08-09T02:56:27.908Z,9.3
2022-08-09T02:58:32.641Z,8.9
2022-08-09T03:08:47.595Z,8.8
2022-08-09T03:10:53.964Z,9.7
2022-08-09T03:12:57.533Z,10.6
2022-08-09T03:15:01.075Z,9.3
2022-08-09T03:17:05.575Z,9
2022-08-09T03:19:14.614Z,8.8
2022-08-09T03:21:11.708Z,9.8
2022-08-09T03:23:24.591Z,10.4
2022-08-09T03:25:56.748Z,10.9
2022-08-09T03:27:25.418Z,9.8
2022-08-09T03:33:54.153Z,9
2022-08-09T03:36:11.873Z,8.9
2022-08-09T03:37:56.082Z,10.3
2022-08-09T03:39:55.547Z,9.5
2022-08-09T03:44:08.097Z,7.9
2022-08-09T03:45:00.142Z,8.8
2022-08-09T03:47:03.643Z,8.4
2022-08-09T03:49:07.699Z,9.4
2022-08-09T03:53:17.378Z,9.5
2022-08-09T03:55:20.908Z,9.4
2022-08-09T03:57:24.418Z,9.1
2022-08-09T03:59:52.894Z,9
2022-08-09T04:03:46.261Z,8.1
2022-08-09T04:05:40.551Z,8.9
2022-08-09T04:07:52.320Z,8.7
2022-08-09T04:09:50.177Z,9.2
2022-08-09T04:11:52.206Z,8.5
2022-08-09T04:14:54.273Z,8.9
2022-08-09T04:16:18.089Z,9.5
2022-08-09T04:18:02.822Z,9
2022-08-09T04:20:06.449Z,8.2
2022-08-09T04:22:13.182Z,9.5
2022-08-09T04:24:16.537Z,9.4
2022-08-09T04:26:20.106Z,9.4
2022-08-09T04:30:28.869Z,10.1
2022-08-09T04:32:33.740Z,9.8
2022-08-09T04:43:17.973Z,10.6
2022-08-09T04:45:21.500Z,10.5
2022-08-09T04:47:25.055Z,9.8
2022-08-09T04:49:54.781Z,10.8
2022-08-09T04:51:35.211Z,11.8
2022-08-09T04:53:38.762Z,9.8
2022-08-09T04:55:57.941Z,10.6
2022-08-09T04:57:59.360Z,9.9
2022-08-09T04:59:50.310Z,10.3
2022-08-09T05:01:53.002Z,9.3
2022-08-09T05:03:59.675Z,10.8
2022-08-09T05:06:06.537Z,11.4
2022-08-09T05:08:06.709Z,11.1
2022-08-09T05:10:10.305Z,10.6
2022-08-09T05:12:13.818Z,12
2022-08-09T05:14:17.382Z,11.2
2022-08-09T05:16:20.941Z,11.4
2022-08-09T05:18:37.820Z,12
2022-08-09T05:20:31.150Z,13.5
2022-08-09T05:23:50.688Z,12.3
2022-08-09T05:24:38.229Z,10.8
2022-08-09T05:26:46.150Z,12.6
2022-08-09T05:28:45.320Z,12.2
2022-08-09T05:38:05.905Z,13.7
2022-08-09T05:40:09.489Z,12.4
2022-08-09T05:42:17.900Z,12.5
2022-08-09T05:44:16.511Z,11.8
2022-08-09T05:46:23.129Z,13.1
2022-08-09T05:48:27.867Z,12.9
2022-08-09T05:54:37.234Z,11.9
2022-08-09T05:56:55.191Z,12.9
2022-08-09T06:00:50.886Z,12.5
2022-08-09T06:04:57.951Z,12.4
2022-08-09T06:07:01.463Z,12.2
2022-08-09T06:09:09.884Z,12.4
2022-08-09T06:15:18.675Z,11.7
2022-08-09T06:17:22.178Z,10.8
2022-08-09T06:19:27.621Z,11.9
2022-08-09T06:21:29.207Z,10.8
2022-08-09T06:23:58.267Z,10
2022-08-09T06:25:36.239Z,9.4
2022-08-09T06:29:48.041Z,9.4
2022-08-09T06:34:56.618Z,7.2
2022-08-09T06:41:09.424Z,6.2
2022-08-09T06:46:04.272Z,7.2
2022-08-09T06:47:20.654Z,6
2022-08-09T06:49:44.624Z,7.3
2022-08-09T06:51:28.188Z,8.2
2022-08-09T06:53:38.557Z,6.7
2022-08-09T06:55:34.645Z,6
2022-08-09T06:58:01.855Z,7
2022-08-09T07:00:50.573Z,5.7
2022-08-09T07:01:54.526Z,5.8
2022-08-09T07:03:52.443Z,5.4
2022-08-09T07:06:02.474Z,4.7
2022-08-09T07:08:01.790Z,4.6
2022-08-09T07:10:17.934Z,5.7
2022-08-09T07:12:17.365Z,4.9
2022-08-09T07:14:12.028Z,4.1
2022-08-09T07:16:43.154Z,5.4
2022-08-09T07:18:18.875Z,4.7
2022-08-09T07:20:22.333Z,4.7
2022-08-09T07:22:27.333Z,4.1
2022-08-09T07:24:32.446Z,4.4
2022-08-09T07:26:35.801Z,3.8
2022-08-09T07:29:07.990Z,3.7
2022-08-09T07:30:42.639Z,4
2022-08-09T07:31:48.066Z,4.2
2022-08-09T07:33:52.565Z,3.7
2022-08-09T07:35:54.202Z,3.5
2022-08-09T07:37:59.231Z,2.8
2022-08-09T07:40:02.718Z,3
2022-08-09T07:42:06.419Z,3.3
2022-08-09T07:44:09.556Z,2.8
2022-08-09T07:48:28.604Z,2.1
2022-08-09T07:58:36.086Z,1.6
2022-08-09T08:00:58.663Z,1.8
2022-08-09T08:04:48.872Z,1.8
2022-08-09T08:06:55.883Z,1.7
2022-08-09T08:09:03.946Z,1.1
2022-08-09T08:11:03.152Z,1.3
2022-08-09T08:13:03.686Z,1.3
2022-08-09T08:15:07.549Z,1.1
2022-08-09T08:17:12.228Z,1.5
2022-08-09T08:19:12.602Z,1.4
2022-08-09T08:21:15.845Z,1.4
2022-08-09T08:23:22.114Z,1.2
2022-08-09T08:25:25.343Z,1.3
2022-08-09T08:27:28.564Z,1.1
2022-08-09T08:29:52.695Z,1
2022-08-09T08:32:05.592Z,0.9
2022-08-09T08:33:59.316Z,0.9
2022-08-09T08:36:05.524Z,0.7
2022-08-09T08:38:11.319Z,0.5
2022-08-09T08:40:12.228Z,0.8
2022-08-09T08:42:15.786Z,0.9
2022-08-09T08:44:18.487Z,0.7
2022-08-09T08:48:29.258Z,0.5
2022-08-09T08:50:32.310Z,0.7
2022-08-09T08:58:46.572Z,0.7
2022-08-09T09:00:54.281Z,0.6
2022-08-09T09:02:52.934Z,0.5
2022-08-09T09:04:57.913Z,0.8
2022-08-09T09:09:04.247Z,0.5
2022-08-09T09:11:07.437Z,0.8
2022-08-09T09:15:28.201Z,0.6
2022-08-09T09:17:16.966Z,0.5
2022-08-09T09:19:40.224Z,0.6
2022-08-09T09:21:26.544Z,0.8
2022-08-09T09:23:34.351Z,0.4
2022-08-09T09:24:32.544Z,0.6
2022-08-09T09:26:35.652Z,0.7
2022-08-09T09:29:01.780Z,0.5
2022-08-09T09:30:42.014Z,0.6
2022-08-09T09:32:48.107Z,0.7
2022-08-09T09:34:51.223Z,0.5
2022-08-09T09:36:54.817Z,0.6
2022-08-09T09:38:57.490Z,0.6
2022-08-09T09:41:00.578Z,0.3
2022-08-09T09:43:03.685Z,0.4
2022-08-09T09:45:06.799Z,0.3
2022-08-09T09:47:14.784Z,0.6
2022-08-09T09:49:16.105Z,0.3
2022-08-09T09:53:44.046Z,0.6
2022-08-09T09:55:32.017Z,0.7
2022-08-09T09:58:03.317Z,0.4
2022-08-09T09:59:35.468Z,0.7
2022-08-09T10:08:10.724Z,0.3
2022-08-09T10:09:54.926Z,0.5
2022-08-09T10:12:04.535Z,0.4
2022-08-09T10:13:56.248Z,0.6
2022-08-09T10:16:54.565Z,0.5
2022-08-09T10:18:05.466Z,0.2
2022-08-09T10:20:15.039Z,0.5
2022-08-09T10:25:21.044Z,0.4
2022-08-09T10:27:28.711Z,0.3
2022-08-09T10:37:39.218Z,0.6
2022-08-09T10:43:59.098Z,0.2
2022-08-09T10:45:58.715Z,0.2
2022-08-09T10:48:14.424Z,0.5
2022-08-09T10:50:00.274Z,0.5
2022-08-09T10:52:03.275Z,0.5
2022-08-09T10:54:06.298Z,0.4
2022-08-09T10:58:17.239Z,0.5
2022-08-09T11:00:18.527Z,0.5
2022-08-09T11:03:14.279Z,0.4
2022-08-09T11:04:30.172Z,0.6
2022-08-09T11:06:27.100Z,0.4
2022-08-09T11:08:33.331Z,0.3
2022-08-09T11:10:32.921Z,0.3
2022-08-09T11:12:39.149Z,0.4
2022-08-09T11:14:42.001Z,0.2
2022-08-09T11:16:44.865Z,0.4
2022-08-09T11:17:47.839Z,0.6
2022-08-09T11:20:12.206Z,0.4
2022-08-09T11:21:56.831Z,0.5
2022-08-09T11:26:02.221Z,0.3
2022-08-09T11:32:10.530Z,0.3
2022-08-09T11:34:13.260Z,0.4
2022-08-09T11:38:18.794Z,0.2
2022-08-09T11:40:24.738Z,0.2
2022-08-09T11:42:27.283Z,0.4
2022-08-09T11:44:29.985Z,0.3
2022-08-09T11:46:33.542Z,0.3
2022-08-09T11:48:35.896Z,0.2
2022-08-09T11:50:54.129Z,0.3
2022-08-09T11:53:15.732Z,0.2
2022-08-09T11:56:48.968Z,0.2
2022-08-09T11:58:51.570Z,0.4
2022-08-09T12:07:01.950Z,0.3
2022-08-09T12:11:12.708Z,0.3
2022-08-09T12:14:07.917Z,0.3
2022-08-09T12:15:49.968Z,0.5
2022-08-09T12:17:44.772Z,0.3
2022-08-09T12:19:40.206Z,0.4
2022-08-09T12:23:56.310Z,0.3
2022-08-09T12:25:50.223Z,0.3
2022-08-09T12:29:13.568Z,1.4
2022-08-09T12:32:02.454Z,0.3
2022-08-09T12:34:01.040Z,0.3
2022-08-09T12:36:05.952Z,0.2
2022-08-09T12:38:08.418Z,0.1
2022-08-09T12:40:11.279Z,0.9
2022-08-09T12:42:16.621Z,0.4
2022-08-09T12:44:15.736Z,0.3
2022-08-09T12:46:18.177Z,0.2
2022-08-09T12:48:33.769Z,0.2
2022-08-09T12:50:26.921Z,0.3
2022-08-09T12:52:42.918Z,0.3
2022-08-09T12:54:31.218Z,0.3
2022-08-09T13:02:40.713Z,0.3
2022-08-09T13:04:46.265Z,0.2
2022-08-09T13:08:53.297Z,0.3
2022-08-09T13:10:01.128Z,0.1
2022-08-09T13:12:01.501Z,0.3
2022-08-09T13:14:41.764Z,0.4
2022-08-09T13:16:01.886Z,0.1
2022-08-09T13:18:09.780Z,0.2
2022-08-09T13:20:14.296Z,0.1
2022-08-09T13:31:11.093Z,0.2
2022-08-09T13:32:29.155Z,0.3
2022-08-09T13:34:30.363Z,0.3
2022-08-09T13:38:57.336Z,0.2
2022-08-09T13:41:50.637Z,0.2
2022-08-09T13:42:39.217Z,0.3
2022-08-09T13:44:42.071Z,0.3
2022-08-09T13:47:29.586Z,0.2
2022-08-09T13:48:49.513Z,0.3
2022-08-09T13:50:51.935Z,0.3
2022-08-09T13:59:01.649Z,0.5
2022-08-09T14:01:13.301Z,0.2
2022-08-09T14:04:01.907Z,0.3
2022-08-09T14:05:13.496Z,0.6
2022-08-09T14:06:25.580Z,0.4
2022-08-09T14:08:17.399Z,0.4
2022-08-09T14:10:45.972Z,0.3
2022-08-09T14:12:25.191Z,0.5
2022-08-09T14:16:30.035Z,0.3
2022-08-09T14:20:34.893Z,0.3
2022-08-09T14:22:37.298Z,0.2
2022-08-09T14:24:53.465Z,0.4
2022-08-09T14:26:42.136Z,0.3
2022-08-09T14:28:47.696Z,0.3
2022-08-09T14:30:50.137Z,0.3
2022-08-09T14:32:52.553Z,0.2
2022-08-09T14:34:55.887Z,0.2
2022-08-09T14:36:57.433Z,0.5
2022-08-09T14:38:59.881Z,0.4
2022-08-09T14:41:24.060Z,0.2
2022-08-09T14:46:38.826Z,0.3
2022-08-09T14:47:43.029Z,0.3
2022-08-09T14:51:19.754Z,0.2
2022-08-09T14:53:22.398Z,0.5
2022-08-09T14:55:25.073Z,0.2
2022-08-09T14:57:31.682Z,0.7
2022-08-09T14:59:38.614Z,0.3
2022-08-09T15:01:36.314Z,0.4
2022-08-09T15:02:40.149Z,0.5
2022-08-09T15:04:41.965Z,0.4
2022-08-09T15:06:49.589Z,0.3
2022-08-09T15:11:01.285Z,0.4
2022-08-09T15:12:56.209Z,0.4
2022-08-09T15:14:59.046Z,0.4
2022-08-09T15:17:03.206Z,0.4
2022-08-09T15:19:15.976Z,0.4
2022-08-09T15:21:58.052Z,0.3
2022-08-09T15:24:02.278Z,0.3
2022-08-09T15:25:16.376Z,0.3
2022-08-09T15:30:55.673Z,0.4
2022-08-09T15:34:17.463Z,0.4
2022-08-09T15:35:43.081Z,0.2
2022-08-09T15:39:53.524Z,0.4
2022-08-09T15:41:44.948Z,0.4
2022-08-09T15:45:51.701Z,0.2
2022-08-09T15:48:03.403Z,0.2
2022-08-09T15:54:19.358Z,0.5
2022-08-09T15:56:28.994Z,0.4
2022-08-09T15:58:09.069Z,0.8
2022-08-09T16:02:41.561Z,0.4
2022-08-09T16:04:44.065Z,1.9
2022-08-09T16:06:50.459Z,0.2
2022-08-09T16:08:53.034Z,0.4
2022-08-09T16:10:56.910Z,0.5
2022-08-09T16:12:58.911Z,0.2
2022-08-09T16:15:01.943Z,0.4
2022-08-09T16:17:04.797Z,0.4
2022-08-09T16:19:07.868Z,0.6
2022-08-09T16:21:16.727Z,0.5
2022-08-09T16:23:19.921Z,0.9
2022-08-09T16:25:36.964Z,0.9
2022-08-09T16:27:22.643Z,0.5
2022-08-09T16:29:36.628Z,0.3
2022-08-09T16:31:38.335Z,0.4
2022-08-09T16:33:34.993Z,0.4
2022-08-09T16:35:56.868Z,0.3
2022-08-09T16:37:53.380Z,0.3
2022-08-09T16:39:54.431Z,1.6
2022-08-09T16:42:04.155Z,0.5
2022-08-09T16:43:49.392Z,0.9
2022-08-09T16:45:53.841Z,0.5
2022-08-09T16:48:40.194Z,0.4
2022-08-09T16:50:30.209Z,0.3
2022-08-09T16:52:04.360Z,0.6
2022-08-09T16:54:26.033Z,0.3
2022-08-09T16:55:15.623Z,0.4
2022-08-09T16:57:13.694Z,0.3
2022-08-09T17:03:25.214Z,0.3
2022-08-09T17:06:08.441Z,0.5
2022-08-09T17:08:44.906Z,0.2
2022-08-09T17:09:45.193Z,0.4
2022-08-09T17:13:40.052Z,0.4
2022-08-09T17:16:00.127Z,0.4
2022-08-09T17:24:20.411Z,0.2
2022-08-09T17:26:02.072Z,0.3
2022-08-09T17:28:03.972Z,0.4
2022-08-09T17:30:12.932Z,0.3
2022-08-09T17:32:15.837Z,0.5
2022-08-09T17:35:00.722Z,0.4
2022-08-09T17:36:18.942Z,0.4
2022-08-09T17:38:32.845Z,0.6
2022-08-09T17:40:26.115Z,0.7
2022-08-09T17:42:40.791Z,0.3
2022-08-09T17:44:47.256Z,0.4
2022-08-09T17:46:36.901Z,0.4
2022-08-09T17:48:40.304Z,0.6
2022-08-09T17:51:45.896Z,0.4
2022-08-09T17:53:52.149Z,0.4
2022-08-09T17:55:56.972Z,0.4
2022-08-09T17:58:03.136Z,1.3
2022-08-09T18:00:05.576Z,0.9
2022-08-09T18:02:10.834Z,0.6
2022-08-09T18:04:06.859Z,0.6
2022-08-09T18:06:14.834Z,0.3
2022-08-09T18:08:13.401Z,0.4
2022-08-09T18:10:15.739Z,0.3
2022-08-09T18:12:19.945Z,0.5
2022-08-09T18:14:24.724Z,0.4
2022-08-09T18:16:29.090Z,0.4
2022-08-09T18:20:54.253Z,0.4
2022-08-09T18:22:36.501Z,0.9
2022-08-09T18:24:39.381Z,0.4
2022-08-09T18:26:46.432Z,0.5
2022-08-09T18:30:41.164Z,0.5
2022-08-09T18:30:51.185Z,0.5
2022-08-09T18:32:54.910Z,0.7
2022-08-09T18:34:57.018Z,0.3
2022-08-09T18:36:59.930Z,0.5
2022-08-09T18:39:03.363Z,0.4
2022-08-09T18:41:05.890Z,0.3
2022-08-09T18:43:11.764Z,0.6
2022-08-09T18:46:44.586Z,0.5
2022-08-09T18:47:20.679Z,0.5
2022-08-09T18:54:30.324Z,0.7
2022-08-09T18:58:38.945Z,0.5
2022-08-09T19:00:41.669Z,0.7
2022-08-09T19:02:44.791Z,0.5
2022-08-09T19:10:59.969Z,0.7
2022-08-09T19:13:20.619Z,0.6
2022-08-09T19:15:06.391Z,0.8
2022-08-09T19:23:18.515Z,0.6
2022-08-09T19:27:28.543Z,0.7
2022-08-09T19:29:30.892Z,1.1
2022-08-09T19:31:45.814Z,0.6
2022-08-09T19:33:37.184Z,0.4
2022-08-09T19:35:57.126Z,1.2
2022-08-09T19:40:03.576Z,0.5
2022-08-09T19:41:53.424Z,0.5
2022-08-09T19:44:01.785Z,0.6
2022-08-09T19:49:02.501Z,0.9
2022-08-09T19:50:49.181Z,0.9
2022-08-09T19:58:56.509Z,0.9
2022-08-09T20:04:57.871Z,0.8
2022-08-09T20:09:06.081Z,0.7
2022-08-09T20:11:09.222Z,1.1
2022-08-09T20:13:12.396Z,1.5
2022-08-09T20:21:55.091Z,0.8
2022-08-09T20:23:39.735Z,1
2022-08-09T20:27:37.592Z,0.6
2022-08-09T20:29:40.797Z,0.7
2022-08-09T20:32:29.332Z,0.7
2022-08-09T20:33:58.163Z,0.8
2022-08-09T20:35:53.672Z,1.6
2022-08-09T20:38:21.509Z,0.8
2022-08-09T20:40:14.939Z,0.8
2022-08-09T20:41:04.704Z,1.3
2022-08-09T20:43:18.667Z,0.8
2022-08-09T20:46:01.202Z,0.6
2022-08-09T20:47:45.542Z,1
2022-08-09T20:49:20.356Z,0.7
2022-08-09T20:51:23.558Z,1.1
2022-08-09T20:53:37.408Z,0.7
2022-08-09T20:55:30.008Z,1.1
2022-08-09T20:57:33.347Z,1
2022-08-09T21:00:19.638Z,1.2
2022-08-09T21:01:50.839Z,0.9
2022-08-09T21:04:14.052Z,0.8
2022-08-09T21:05:59.458Z,0.8
2022-08-09T21:07:56.173Z,1
2022-08-09T21:09:58.491Z,0.9
2022-08-09T21:14:03.115Z,0.9
2022-08-09T21:16:19.171Z,1.3
2022-08-09T21:18:25.184Z,0.9
2022-08-09T21:20:22.514Z,1
2022-08-09T21:22:35.701Z,1.1
2022-08-09T21:24:28.405Z,0.9
2022-08-09T21:26:26.188Z,0.9
2022-08-09T21:28:34.720Z,0.9
2022-08-09T21:30:32.934Z,0.6
2022-08-09T21:32:39.407Z,0.9
2022-08-09T21:34:48.369Z,1.4
2022-08-09T21:36:55.903Z,0.8
2022-08-09T21:39:53.377Z,1.3
2022-08-09T21:42:04.221Z,0.7
2022-08-09T21:43:59.574Z,0.9
2022-08-09T21:46:06.241Z,1.1
2022-08-09T21:48:09.506Z,1
2022-08-09T21:50:22.210Z,0.9
2022-08-09T21:52:18.298Z,0.8
2022-08-09T21:54:19.703Z,1
2022-08-09T21:56:33.890Z,1
2022-08-09T21:58:30.917Z,1
2022-08-09T22:00:33.491Z,1.2
2022-08-09T22:02:37.975Z,0.7
2022-08-09T22:04:56.951Z,0.8
2022-08-09T22:06:43.289Z,1.1
2022-08-09T22:08:46.731Z,0.9
2022-08-09T22:11:00.551Z,1
2022-08-09T22:12:53.567Z,1.3
2022-08-09T22:15:00.146Z,0.9
2022-08-09T22:17:03.546Z,1.1
2022-08-09T22:19:53.433Z,1.2
2022-08-09T22:21:22.164Z,1.2
2022-08-09T22:23:13.889Z,1
2022-08-09T22:26:07.825Z,1.4
2022-08-09T22:27:20.767Z,1
2022-08-09T22:29:38.349Z,1.2
2022-08-09T22:31:30.773Z,1.1
2022-08-09T22:33:37.495Z,1.2
2022-08-09T22:36:46.397Z,1.4
2022-08-09T22:40:49.015Z,1.2
2022-08-09T22:42:54.377Z,1.3
2022-08-09T22:48:04.718Z,1.3
2022-08-09T22:49:10.096Z,0.8
2022-08-09T22:55:21.801Z,1.3
2022-08-09T23:04:04.112Z,1.4
2022-08-09T23:09:42.359Z,1
2022-08-09T23:13:52.413Z,1
2022-08-09T23:16:02.151Z,1.6
2022-08-09T23:17:59.330Z,1.4
2022-08-09T23:20:07.918Z,1.5
2022-08-09T23:22:06.280Z,1.4
2022-08-09T23:24:09.744Z,1.5
2022-08-09T23:26:16.289Z,1.4
2022-08-09T23:28:19.835Z,1.7
2022-08-09T23:36:54.497Z,2
2022-08-09T23:41:04.560Z,2.2
2022-08-09T23:47:14.932Z,2.1
2022-08-09T23:49:24.690Z,1.8
2022-08-09T23:51:21.890Z,1.5
2022-08-09T23:53:31.225Z,1.8
2022-08-09T23:55:31.936Z,1.5
2022-08-09T23:57:41.600Z,1.3
